CheckWX is a tool to help pilots better visualize weather data.  It is not intended as a substitute for an official pre-flight weather briefing.

05:32:35 UTC

KASJ METAR
Tri-County Airport
Ahoskie, North Carolina, USA
Current

8 mins ago

KASJ 200525Z AUTO 00000KT 10SM -RA SCT060 SCT070 OVC090 00/M02 A3059 RMK AO2 T00001021
Observed
Feb-20 @ 05:25 UTC
Visibility
16,093 meters
Flight Rules
VFR
Conditions
Light Rain
Cloud Levels
  • Scattered at 6,000' AGL
  • Scattered at 7,000' AGL
  • Overcast at 9,000' AGL
Temperature
C / 32°F
Dewpoint
-2°C / 28°F
Humidity
87%
Altimeter
30.59" Hg
Pressure
1035.91 hPa
Previous

28 mins ago

KASJ 200505Z AUTO 00000KT 7SM -SN BKN060 BKN070 OVC090 00/M01 A3062 RMK AO2 T00001014
Observed
Feb-20 @ 05:05 UTC
Visibility
11,265 meters
Flight Rules
VFR
Conditions
Light Snow
Cloud Levels
  • Broken at 6,000' AGL
  • Broken at 7,000' AGL
  • Overcast at 9,000' AGL
Temperature
C / 32°F
Dewpoint
-1°C / 30°F
Humidity
93%
Altimeter
30.62" Hg
Pressure
1036.91 hPa
Previous

48 mins ago

KASJ 200445Z AUTO 00000KT 5SM -SN BKN065 OVC075 00/M01 A3063 RMK AO2 T00021008
Observed
Feb-20 @ 04:45 UTC
Visibility
8,047 meters
Flight Rules
MVFR
Conditions
Light Snow
Cloud Levels
  • Broken at 6,500' AGL
  • Overcast at 7,500' AGL
Temperature
C / 32°F
Dewpoint
-1°C / 30°F
Humidity
93%
Altimeter
30.63" Hg
Pressure
1037.21 hPa